createdAt,value
2018-07-16T00:00:51.471Z,50.73
2018-07-16T00:03:20.164Z,50.49
2018-07-16T00:05:48.769Z,51.14
2018-07-16T00:08:17.448Z,50.68
2018-07-16T00:10:46.136Z,50.43
2018-07-16T00:13:14.790Z,51.15
2018-07-16T00:15:43.440Z,51.32
2018-07-16T00:18:12.125Z,51.89
2018-07-16T00:20:40.963Z,51.59
2018-07-16T00:23:09.599Z,51.62
2018-07-16T00:25:38.190Z,52.20
2018-07-16T00:28:06.979Z,52.30
2018-07-16T00:30:35.752Z,51.89
2018-07-16T00:33:04.360Z,52.12
2018-07-16T00:35:33.181Z,52.27
2018-07-16T00:38:01.744Z,52.89
2018-07-16T00:40:30.353Z,52.81
2018-07-16T00:42:59.036Z,52.55
2018-07-16T00:45:27.736Z,53.13
2018-07-16T00:47:56.459Z,53.37
2018-07-16T00:50:25.149Z,53.02
2018-07-16T00:52:53.781Z,53.57
2018-07-16T00:55:22.387Z,53.17
2018-07-16T00:57:51.122Z,53.44
2018-07-16T01:00:19.829Z,53.20
2018-07-16T01:02:48.390Z,53.58
2018-07-16T01:05:17.069Z,53.91
2018-07-16T01:07:45.762Z,53.63
2018-07-16T01:10:14.452Z,54.10
2018-07-16T01:12:43.180Z,53.80
2018-07-16T01:15:11.821Z,54.19
2018-07-16T01:17:40.487Z,54.30
2018-07-16T01:20:09.162Z,54.32
2018-07-16T01:22:37.809Z,54.60
2018-07-16T01:25:06.485Z,54.20
2018-07-16T01:27:35.177Z,54.61
2018-07-16T01:30:03.921Z,54.40
2018-07-16T01:32:33.005Z,54.89
2018-07-16T01:35:01.677Z,55.39
2018-07-16T01:37:30.630Z,55.14
2018-07-16T01:39:59.425Z,55.67
2018-07-16T01:42:28.118Z,54.99
2018-07-16T01:44:56.812Z,55.24
2018-07-16T01:47:25.439Z,55.37
2018-07-16T01:49:54.174Z,55.86
2018-07-16T01:52:22.946Z,55.57
2018-07-16T01:54:51.701Z,55.55
2018-07-16T01:57:20.380Z,55.85
2018-07-16T01:59:49.052Z,55.99
2018-07-16T02:02:17.770Z,56.33
2018-07-16T02:04:46.471Z,55.74
2018-07-16T02:07:15.185Z,56.05
2018-07-16T02:09:43.850Z,56.72
2018-07-16T02:12:12.517Z,56.73
2018-07-16T02:14:41.154Z,56.19
2018-07-16T02:17:09.739Z,56.74
2018-07-16T02:19:38.392Z,56.40
2018-07-16T02:22:07.154Z,56.93
2018-07-16T02:24:36.033Z,55.99
2018-07-16T02:27:04.654Z,56.49
2018-07-16T02:29:33.330Z,56.80
2018-07-16T02:32:02.160Z,56.27
2018-07-16T02:34:30.849Z,56.30
2018-07-16T02:36:59.423Z,56.11
2018-07-16T02:39:28.149Z,56.59
2018-07-16T02:41:56.832Z,56.34
2018-07-16T02:44:25.453Z,56.61
2018-07-16T02:46:54.084Z,56.69
2018-07-16T02:49:22.713Z,56.39
2018-07-16T02:51:51.415Z,56.59
2018-07-16T02:54:20.138Z,56.30
2018-07-16T02:56:48.830Z,56.77
2018-07-16T02:59:17.617Z,56.91
2018-07-16T03:01:46.382Z,57.52
2018-07-16T03:04:15.156Z,56.61
2018-07-16T03:06:43.877Z,57.32
2018-07-16T03:09:12.556Z,57.52
2018-07-16T03:11:41.209Z,57.14
2018-07-16T03:14:09.842Z,56.39
2018-07-16T03:16:38.724Z,56.99
2018-07-16T03:19:07.357Z,56.49
2018-07-16T03:21:36.038Z,56.28
2018-07-16T03:24:04.680Z,56.26
2018-07-16T03:26:33.414Z,56.23
2018-07-16T03:29:02.046Z,56.23
2018-07-16T03:31:30.832Z,56.98
2018-07-16T03:33:59.484Z,55.89
2018-07-16T03:36:28.136Z,56.53
2018-07-16T03:38:57.109Z,56.60
2018-07-16T03:41:25.722Z,56.27
2018-07-16T03:43:54.470Z,56.18
2018-07-16T03:46:23.179Z,55.90
2018-07-16T03:48:51.829Z,55.81
2018-07-16T03:51:20.541Z,55.88
2018-07-16T03:53:49.197Z,56.39
2018-07-16T03:56:17.808Z,56.35
2018-07-16T03:58:46.548Z,55.83
2018-07-16T04:01:15.283Z,55.54
2018-07-16T04:03:43.986Z,55.83
2018-07-16T04:06:12.605Z,55.83
2018-07-16T04:08:41.324Z,55.52
2018-07-16T04:11:10.049Z,55.94
2018-07-16T04:13:38.761Z,55.39
2018-07-16T04:16:07.386Z,55.87
2018-07-16T04:18:36.413Z,55.09
2018-07-16T04:21:05.100Z,55.06
2018-07-16T04:23:33.644Z,54.82
2018-07-16T04:26:02.370Z,54.95
2018-07-16T04:28:31.022Z,54.67
2018-07-16T04:30:59.740Z,53.46
2018-07-16T04:33:28.426Z,53.83
2018-07-16T04:35:57.110Z,53.58
2018-07-16T04:38:25.801Z,52.83
2018-07-16T04:40:54.539Z,53.89
2018-07-16T04:43:23.175Z,53.66
2018-07-16T04:45:51.886Z,53.81
2018-07-16T04:48:20.604Z,53.31
2018-07-16T04:50:49.238Z,52.53
2018-07-16T04:53:18.006Z,52.35
2018-07-16T04:55:46.749Z,52.31
2018-07-16T04:58:15.410Z,52.60
2018-07-16T05:00:44.025Z,52.07
2018-07-16T05:03:12.831Z,50.80
2018-07-16T05:05:41.571Z,50.51
2018-07-16T05:08:10.164Z,50.23
2018-07-16T05:10:38.813Z,50.46
2018-07-16T05:13:07.632Z,50.11
2018-07-16T05:15:36.256Z,51.22
2018-07-16T05:18:05.140Z,50.75
2018-07-16T05:20:33.855Z,50.08
2018-07-16T05:23:02.581Z,48.85
2018-07-16T05:25:31.402Z,49.51
2018-07-16T05:28:00.133Z,49.85
2018-07-16T05:30:28.767Z,49.67
2018-07-16T05:32:57.398Z,49.67
2018-07-16T05:35:26.109Z,49.29
2018-07-16T05:38:01.299Z,48.42
2018-07-16T05:40:30.102Z,47.94
2018-07-16T05:42:58.756Z,47.68
2018-07-16T05:45:27.433Z,47.22
2018-07-16T05:47:56.208Z,46.06
2018-07-16T05:50:24.880Z,45.64
2018-07-16T05:52:53.503Z,44.89
2018-07-16T05:55:22.284Z,45.57
2018-07-16T05:57:50.900Z,44.52
2018-07-16T06:00:19.537Z,45.35
2018-07-16T06:02:48.190Z,45.03
2018-07-16T06:05:16.940Z,43.15
2018-07-16T06:07:45.789Z,41.92
2018-07-16T06:10:14.412Z,43.40
2018-07-16T06:12:43.091Z,43.11
2018-07-16T06:15:11.822Z,42.87
2018-07-16T06:17:40.536Z,42.07
2018-07-16T06:20:10.708Z,41.57
2018-07-16T06:22:39.630Z,41.35
2018-07-16T06:25:08.787Z,40.84
2018-07-16T06:27:37.546Z,41.78
2018-07-16T06:30:06.370Z,40.33
2018-07-16T06:32:35.355Z,40.70
2018-07-16T06:35:04.211Z,41.30
2018-07-16T06:37:32.940Z,40.14
2018-07-16T06:40:01.611Z,41.40
2018-07-16T06:42:30.251Z,40.78
2018-07-16T06:44:58.932Z,40.93
2018-07-16T06:47:27.653Z,40.44
2018-07-16T06:49:56.504Z,39.81
2018-07-16T06:52:25.111Z,40.14
2018-07-16T06:57:21.468Z,41.62
2018-07-16T06:59:50.131Z,41.33
2018-07-16T07:02:18.861Z,41.99
2018-07-16T07:04:47.549Z,41.05
2018-07-16T07:07:16.202Z,41.03
2018-07-16T07:09:44.836Z,39.93
2018-07-16T07:12:13.647Z,40.45
2018-07-16T07:14:42.379Z,39.33
2018-07-16T07:17:11.016Z,40.47
2018-07-16T07:19:39.695Z,40.11
2018-07-16T07:22:08.331Z,39.69
2018-07-16T07:24:37.172Z,38.50
2018-07-16T07:27:05.952Z,39.47
2018-07-16T07:29:34.562Z,38.78
2018-07-16T07:32:03.310Z,39.20
2018-07-16T07:34:31.959Z,38.31
2018-07-16T07:37:00.678Z,37.49
2018-07-16T07:39:29.248Z,37.27
2018-07-16T07:41:57.916Z,38.85
2018-07-16T07:44:26.527Z,38.05
2018-07-16T07:46:55.406Z,37.21
2018-07-16T07:49:24.042Z,38.16
2018-07-16T07:51:52.692Z,37.52
2018-07-16T07:54:21.644Z,36.94
2018-07-16T07:56:50.091Z,37.18
2018-07-16T07:59:18.777Z,36.95
2018-07-16T08:01:47.555Z,37.32
2018-07-16T08:04:16.276Z,36.17
2018-07-16T08:06:49.828Z,35.95
2018-07-16T08:09:18.458Z,35.92
2018-07-16T08:11:47.145Z,35.16
2018-07-16T08:14:15.859Z,36.49
2018-07-16T08:16:44.566Z,35.08
2018-07-16T08:19:13.180Z,34.63
2018-07-16T08:21:41.952Z,35.21
2018-07-16T08:24:10.674Z,35.01
2018-07-16T08:26:39.838Z,35.38
2018-07-16T08:29:08.478Z,34.46
2018-07-16T08:31:37.278Z,34.97
2018-07-16T08:34:06.220Z,34.91
2018-07-16T08:36:35.040Z,35.49
2018-07-16T08:39:04.941Z,35.14
2018-07-16T08:41:33.541Z,34.55
2018-07-16T08:44:02.436Z,34.37
2018-07-16T08:46:31.214Z,34.38
2018-07-16T08:49:00.286Z,34.90
2018-07-16T08:51:29.037Z,33.10
2018-07-16T08:53:57.866Z,34.44
2018-07-16T08:56:26.625Z,33.89
2018-07-16T08:58:55.530Z,34.01
2018-07-16T09:01:24.239Z,34.54
2018-07-16T09:03:53.166Z,35.27
2018-07-16T09:06:21.847Z,35.00
2018-07-16T09:08:50.525Z,34.55
2018-07-16T09:11:19.321Z,32.79
2018-07-16T09:13:47.964Z,34.54
2018-07-16T09:16:16.544Z,33.69
2018-07-16T09:18:45.315Z,33.14
2018-07-16T09:21:13.948Z,33.06
2018-07-16T09:23:42.565Z,32.47
2018-07-16T09:26:11.386Z,33.90
2018-07-16T09:28:40.443Z,32.98
2018-07-16T09:31:09.424Z,33.52
2018-07-16T09:33:38.237Z,32.90
2018-07-16T09:36:06.946Z,32.47
2018-07-16T09:38:35.739Z,33.27
2018-07-16T09:41:04.528Z,31.70
2018-07-16T09:43:33.212Z,31.57
2018-07-16T09:46:01.907Z,32.32
2018-07-16T09:48:30.528Z,32.35
2018-07-16T09:50:59.200Z,31.51
2018-07-16T09:53:27.870Z,31.94
2018-07-16T09:55:56.528Z,30.63
2018-07-16T09:58:25.272Z,31.91
2018-07-16T10:00:59.161Z,30.52
2018-07-16T10:03:27.911Z,29.47
2018-07-16T10:05:56.622Z,30.16
2018-07-16T10:08:25.430Z,30.11
2018-07-16T10:10:54.141Z,30.65
2018-07-16T10:13:22.926Z,30.01
2018-07-16T10:15:51.544Z,30.36
2018-07-16T10:18:20.369Z,29.53
2018-07-16T10:20:48.981Z,30.76
2018-07-16T10:23:17.617Z,29.46
2018-07-16T10:25:46.406Z,30.13
2018-07-16T10:28:15.071Z,29.78
2018-07-16T10:30:43.786Z,28.88
2018-07-16T10:33:12.576Z,29.71
2018-07-16T10:35:41.230Z,28.45
2018-07-16T10:38:10.026Z,29.80
2018-07-16T10:40:38.975Z,29.32
2018-07-16T10:43:07.670Z,28.43
2018-07-16T10:45:36.348Z,28.94
2018-07-16T10:48:06.223Z,29.14
2018-07-16T10:50:34.998Z,28.78
2018-07-16T10:53:03.617Z,29.05
2018-07-16T10:56:02.918Z,27.77
2018-07-16T10:58:31.548Z,28.66
2018-07-16T11:01:00.218Z,27.21
2018-07-16T11:03:28.956Z,26.47
2018-07-16T11:06:09.410Z,26.85
2018-07-16T11:08:38.081Z,26.89
2018-07-16T11:11:06.963Z,26.62
2018-07-16T11:13:35.541Z,25.65
2018-07-16T11:16:04.175Z,25.29
2018-07-16T11:18:32.860Z,24.99
2018-07-16T11:21:01.589Z,25.54
2018-07-16T11:23:30.227Z,25.32
2018-07-16T11:25:59.014Z,24.81
2018-07-16T11:28:27.640Z,25.56
2018-07-16T11:30:56.270Z,24.08
2018-07-16T11:33:25.184Z,24.38
2018-07-16T11:35:53.940Z,23.31
2018-07-16T11:38:22.615Z,24.50
2018-07-16T11:40:51.408Z,22.74
2018-07-16T11:43:19.995Z,23.51
2018-07-16T11:45:48.748Z,24.76
2018-07-16T11:48:17.628Z,25.13
2018-07-16T11:50:46.338Z,24.68
2018-07-16T11:53:15.001Z,24.13
2018-07-16T11:55:43.574Z,23.86
2018-07-16T11:58:12.351Z,22.56
2018-07-16T12:00:41.152Z,22.69
2018-07-16T12:03:09.957Z,22.56
2018-07-16T12:05:38.525Z,21.62
2018-07-16T12:08:07.318Z,21.06
2018-07-16T12:10:36.547Z,22.07
2018-07-16T12:13:05.207Z,24.30
2018-07-16T12:15:33.854Z,25.22
2018-07-16T12:18:02.699Z,26.08
2018-07-16T12:20:31.421Z,26.49
2018-07-16T12:22:59.963Z,27.12
2018-07-16T12:25:28.715Z,27.29
2018-07-16T12:27:57.594Z,27.19
2018-07-16T12:30:26.296Z,27.58
2018-07-16T12:32:55.255Z,27.23
2018-07-16T12:35:24.124Z,28.18
2018-07-16T12:37:52.724Z,27.40
2018-07-16T12:40:21.412Z,27.40
2018-07-16T12:42:50.120Z,27.39
2018-07-16T12:45:18.823Z,27.61
2018-07-16T12:47:47.501Z,27.70
2018-07-16T12:50:16.345Z,27.64
2018-07-16T12:52:45.040Z,27.72
2018-07-16T12:55:13.696Z,28.07
2018-07-16T12:57:42.477Z,28.03
2018-07-16T13:00:11.202Z,27.73
2018-07-16T13:02:39.861Z,28.06
2018-07-16T13:05:08.737Z,27.75
2018-07-16T13:07:37.421Z,27.58
2018-07-16T13:10:06.269Z,27.05
2018-07-16T13:12:35.095Z,26.58
2018-07-16T13:15:03.858Z,26.34
2018-07-16T13:17:32.545Z,26.76
2018-07-16T13:20:01.219Z,26.71
2018-07-16T13:22:29.812Z,26.18
2018-07-16T13:24:58.432Z,25.58
2018-07-16T13:27:27.015Z,23.46
2018-07-16T13:29:55.797Z,22.91
2018-07-16T13:32:24.561Z,22.10
2018-07-16T13:34:53.121Z,20.50
2018-07-16T13:37:21.983Z,19.80
2018-07-16T13:39:50.630Z,20.30
2018-07-16T13:42:19.357Z,20.45
2018-07-16T13:44:48.036Z,19.73
2018-07-16T13:47:16.721Z,19.64
2018-07-16T13:49:45.493Z,19.97
2018-07-16T13:52:14.098Z,20.30
2018-07-16T13:54:43.043Z,21.22
2018-07-16T13:57:11.658Z,21.71
2018-07-16T13:59:40.295Z,22.06
2018-07-16T14:02:09.173Z,23.09
2018-07-16T14:04:37.801Z,24.33
2018-07-16T14:07:06.491Z,25.44
2018-07-16T14:09:35.205Z,26.73
2018-07-16T14:12:03.911Z,27.17
2018-07-16T14:14:32.598Z,27.23
2018-07-16T14:17:01.327Z,27.98
2018-07-16T14:19:30.018Z,28.00
2018-07-16T14:21:58.706Z,27.88
2018-07-16T14:24:27.471Z,27.84
2018-07-16T14:26:56.245Z,28.58
2018-07-16T14:29:24.845Z,28.57
2018-07-16T14:31:53.437Z,28.86
2018-07-16T14:34:22.070Z,28.06
2018-07-16T14:36:50.809Z,28.18
2018-07-16T14:39:19.503Z,27.61
2018-07-16T14:41:48.129Z,27.72
2018-07-16T14:44:16.806Z,26.78
2018-07-16T14:46:45.753Z,26.20
2018-07-16T14:49:14.673Z,25.77
2018-07-16T14:51:43.353Z,25.96
2018-07-16T14:54:12.186Z,25.34
2018-07-16T14:56:41.111Z,24.47
2018-07-16T14:59:09.826Z,24.84
2018-07-16T15:01:38.557Z,23.12
2018-07-16T15:04:07.640Z,22.00
2018-07-16T15:06:36.448Z,21.69
2018-07-16T15:09:07.311Z,21.95
2018-07-16T15:11:35.924Z,21.71
2018-07-16T15:14:04.675Z,21.79
2018-07-16T15:16:33.366Z,22.53
2018-07-16T15:19:02.049Z,21.32
2018-07-16T15:21:30.950Z,21.52
2018-07-16T15:23:59.690Z,23.58
2018-07-16T15:26:28.350Z,24.35
2018-07-16T15:28:57.368Z,24.82
2018-07-16T15:31:25.960Z,27.14
2018-07-16T15:33:54.585Z,27.78
2018-07-16T15:36:23.510Z,29.12
2018-07-16T15:38:52.231Z,30.20
2018-07-16T15:41:20.917Z,31.00
2018-07-16T15:43:49.662Z,30.75
2018-07-16T15:46:18.507Z,31.48
2018-07-16T15:48:47.207Z,31.35
2018-07-16T15:51:15.760Z,32.21
2018-07-16T15:53:44.415Z,31.94
2018-07-16T15:56:13.206Z,32.93
2018-07-16T15:58:42.157Z,32.67
2018-07-16T16:01:10.875Z,32.26
2018-07-16T16:03:39.590Z,32.27
2018-07-16T16:06:08.564Z,32.24
2018-07-16T16:08:37.344Z,33.21
2018-07-16T16:11:06.503Z,33.38
2018-07-16T16:13:35.230Z,33.02
2018-07-16T16:16:04.014Z,33.69
2018-07-16T16:18:32.605Z,33.39
2018-07-16T16:21:01.260Z,33.32
2018-07-16T16:23:29.955Z,33.78
2018-07-16T16:25:58.672Z,33.23
2018-07-16T16:28:27.612Z,33.78
2018-07-16T16:30:56.243Z,33.81
2018-07-16T16:33:25.144Z,33.64
2018-07-16T16:35:53.795Z,33.95
2018-07-16T16:38:22.701Z,33.41
2018-07-16T16:40:51.367Z,33.86
2018-07-16T16:43:20.126Z,33.66
2018-07-16T16:45:48.904Z,33.32
2018-07-16T16:48:17.558Z,33.96
2018-07-16T16:50:46.499Z,34.05
2018-07-16T16:53:15.102Z,34.59
2018-07-16T16:55:43.840Z,34.31
2018-07-16T16:58:12.533Z,34.75
2018-07-16T17:00:41.180Z,34.54
2018-07-16T17:03:09.795Z,34.81
2018-07-16T17:05:38.684Z,34.30
2018-07-16T17:08:07.313Z,34.71
2018-07-16T17:10:36.026Z,34.71
2018-07-16T17:13:04.776Z,35.06
2018-07-16T17:15:33.432Z,35.48
2018-07-16T17:18:02.095Z,35.81
2018-07-16T17:20:30.731Z,35.27
2018-07-16T17:22:59.413Z,35.38
2018-07-16T17:25:28.543Z,36.33
2018-07-16T17:27:57.165Z,35.78
2018-07-16T17:30:25.877Z,36.46
2018-07-16T17:32:54.516Z,36.95
2018-07-16T17:35:23.373Z,36.27
2018-07-16T17:37:52.001Z,35.93
2018-07-16T17:40:20.598Z,36.08
2018-07-16T17:42:49.349Z,36.50
2018-07-16T17:45:17.986Z,35.79
2018-07-16T17:47:46.651Z,35.33
2018-07-16T17:50:15.388Z,35.68
2018-07-16T17:52:44.201Z,35.40
2018-07-16T17:55:12.834Z,36.10
2018-07-16T17:57:41.508Z,36.43
2018-07-16T18:00:10.435Z,36.39
2018-07-16T18:02:39.146Z,36.51
2018-07-16T18:05:07.779Z,36.13
2018-07-16T18:07:36.586Z,36.19
2018-07-16T18:10:05.697Z,36.83
2018-07-16T18:12:34.295Z,36.21
2018-07-16T18:15:03.023Z,36.04
2018-07-16T18:17:31.750Z,36.19
2018-07-16T18:20:00.411Z,36.54
2018-07-16T18:22:29.072Z,36.44
2018-07-16T18:24:57.722Z,36.61
2018-07-16T18:27:26.484Z,36.09
2018-07-16T18:29:55.156Z,36.17
2018-07-16T18:32:23.983Z,36.06
2018-07-16T18:34:52.604Z,36.97
2018-07-16T18:37:21.282Z,36.92
2018-07-16T18:39:49.999Z,37.51
2018-07-16T18:42:18.979Z,36.80
2018-07-16T18:44:48.072Z,37.75
2018-07-16T18:47:16.828Z,37.83
2018-07-16T18:49:45.501Z,37.89
2018-07-16T18:52:14.170Z,37.97
2018-07-16T18:54:42.947Z,38.14
2018-07-16T18:57:11.563Z,38.31
2018-07-16T18:59:40.229Z,38.83
2018-07-16T19:02:08.884Z,38.75
2018-07-16T19:04:37.530Z,38.85
2018-07-16T19:07:06.308Z,39.19
2018-07-16T19:09:35.410Z,39.17
2018-07-16T19:12:04.149Z,39.68
2018-07-16T19:14:32.893Z,39.25
2018-07-16T19:17:02.111Z,38.48
2018-07-16T19:19:31.183Z,39.38
2018-07-16T19:22:00.023Z,39.15
2018-07-16T19:24:28.932Z,39.19
2018-07-16T19:26:57.529Z,38.97
2018-07-16T19:29:27.234Z,39.47
2018-07-16T19:31:56.237Z,39.82
2018-07-16T19:34:24.917Z,40.22
2018-07-16T19:36:53.531Z,40.41
2018-07-16T19:39:22.317Z,40.60
2018-07-16T19:41:51.053Z,40.66
2018-07-16T19:44:19.654Z,40.94
2018-07-16T19:46:48.481Z,41.67
2018-07-16T19:49:17.163Z,41.94
2018-07-16T19:51:45.964Z,42.08
2018-07-16T19:54:14.699Z,41.94
2018-07-16T19:56:43.360Z,42.24
2018-07-16T19:59:11.958Z,43.03
2018-07-16T20:01:40.789Z,43.23
2018-07-16T20:04:09.565Z,43.46
2018-07-16T20:06:38.221Z,43.54
2018-07-16T20:09:07.412Z,43.46
2018-07-16T20:11:36.286Z,43.23
2018-07-16T20:14:04.922Z,43.39
2018-07-16T20:16:40.485Z,44.07
2018-07-16T20:19:09.296Z,44.15
2018-07-16T20:21:37.990Z,44.15
2018-07-16T20:24:06.817Z,44.29
2018-07-16T20:26:35.510Z,45.26
2018-07-16T20:29:04.321Z,45.27
2018-07-16T20:31:33.116Z,45.49
2018-07-16T20:34:01.777Z,45.25
2018-07-16T20:36:30.696Z,45.15
2018-07-16T20:38:59.336Z,45.79
2018-07-16T20:41:27.916Z,45.84
2018-07-16T20:43:56.564Z,46.19
2018-07-16T20:46:25.258Z,46.28
2018-07-16T20:48:54.241Z,46.43
2018-07-16T20:51:22.888Z,46.81
2018-07-16T20:53:52.000Z,46.96
2018-07-16T20:56:21.722Z,47.26
2018-07-16T20:58:50.451Z,47.08
2018-07-16T21:01:19.343Z,47.46
2018-07-16T21:03:47.947Z,47.82
2018-07-16T21:06:16.566Z,48.81
2018-07-16T21:08:45.322Z,48.89
2018-07-16T21:11:14.213Z,49.06
2018-07-16T21:13:42.771Z,49.48
2018-07-16T21:16:11.482Z,49.26
2018-07-16T21:18:40.162Z,49.65
2018-07-16T21:21:08.928Z,49.67
2018-07-16T21:23:37.739Z,49.95
2018-07-16T21:26:06.532Z,50.01
2018-07-16T21:28:35.239Z,50.12
2018-07-16T21:31:03.971Z,50.59
2018-07-16T21:33:32.692Z,50.47
2018-07-16T21:36:01.378Z,51.05
2018-07-16T21:38:30.034Z,51.38
2018-07-16T21:40:58.669Z,51.32
2018-07-16T21:43:27.381Z,51.70
2018-07-16T21:45:56.080Z,51.51
2018-07-16T21:48:24.798Z,51.66
2018-07-16T21:50:53.438Z,52.03
2018-07-16T21:53:22.128Z,52.30
2018-07-16T21:55:50.952Z,52.35
2018-07-16T21:58:19.621Z,52.53
2018-07-16T22:00:48.894Z,52.46
2018-07-16T22:03:17.643Z,52.31
2018-07-16T22:05:46.409Z,52.56
2018-07-16T22:08:15.015Z,52.33
2018-07-16T22:10:43.690Z,52.14
2018-07-16T22:13:12.370Z,52.20
2018-07-16T22:15:41.095Z,52.64
2018-07-16T22:18:09.807Z,52.47
2018-07-16T22:20:38.457Z,53.32
2018-07-16T22:23:07.278Z,53.53
2018-07-16T22:25:35.925Z,54.64
2018-07-16T22:28:04.578Z,55.34
2018-07-16T22:30:33.193Z,56.36
2018-07-16T22:33:01.846Z,58.44
2018-07-16T22:35:30.579Z,59.07
2018-07-16T22:37:59.326Z,58.22
2018-07-16T22:40:27.969Z,57.61
2018-07-16T22:42:56.683Z,57.68
2018-07-16T22:45:25.441Z,58.37
2018-07-16T22:47:54.361Z,57.78
2018-07-16T22:50:23.122Z,57.73
2018-07-16T22:52:51.957Z,57.84
2018-07-16T22:55:20.613Z,58.41
2018-07-16T22:57:49.185Z,58.92
2018-07-16T23:00:17.895Z,59.44
2018-07-16T23:02:46.486Z,58.44
2018-07-16T23:05:15.225Z,57.93
2018-07-16T23:07:43.991Z,58.71
2018-07-16T23:10:12.813Z,58.57
2018-07-16T23:12:41.552Z,58.77
2018-07-16T23:15:10.328Z,58.83
2018-07-16T23:17:39.010Z,59.09
2018-07-16T23:20:07.672Z,58.78
2018-07-16T23:22:48.404Z,58.74
2018-07-16T23:25:17.085Z,58.79
2018-07-16T23:27:45.806Z,58.90
2018-07-16T23:30:14.394Z,59.24
2018-07-16T23:32:43.078Z,58.78
2018-07-16T23:35:11.773Z,59.02
2018-07-16T23:37:40.547Z,58.93
2018-07-16T23:40:09.306Z,59.06
2018-07-16T23:42:37.902Z,59.41
2018-07-16T23:45:06.580Z,60.61
2018-07-16T23:47:35.365Z,59.94
2018-07-16T23:50:04.123Z,60.40
2018-07-16T23:52:32.797Z,60.50
2018-07-16T23:55:01.330Z,60.67
2018-07-16T23:57:30.271Z,60.65
2018-07-16T23:59:59.021Z,60.78
